sensor_id;sensor_type;location;lat;lon;timestamp;temperature;humidity
34698;DHT22;61391;50.922;6.928;2022-12-08T00:01:50;6.20;99.90
34698;DHT22;61391;50.922;6.928;2022-12-08T00:04:15;6.10;99.90
34698;DHT22;61391;50.922;6.928;2022-12-08T00:06:42;6.10;99.90
34698;DHT22;61391;50.922;6.928;2022-12-08T00:09:36;6.20;99.90
34698;DHT22;61391;50.922;6.928;2022-12-08T00:17:01;6.30;99.90
34698;DHT22;61391;50.922;6.928;2022-12-08T00:19:28;6.20;99.90
34698;DHT22;61391;50.922;6.928;2022-12-08T00:21:54;6.30;99.90
34698;DHT22;61391;50.922;6.928;2022-12-08T00:24:21;6.30;99.90
34698;DHT22;61391;50.922;6.928;2022-12-08T00:26:47;6.20;99.90
34698;DHT22;61391;50.922;6.928;2022-12-08T00:29:13;6.30;99.90
34698;DHT22;61391;50.922;6.928;2022-12-08T00:31:39;6.30;99.90
34698;DHT22;61391;50.922;6.928;2022-12-08T00:34:05;6.30;99.90
34698;DHT22;61391;50.922;6.928;2022-12-08T00:39:52;6.20;99.90
34698;DHT22;61391;50.922;6.928;2022-12-08T00:42:18;6.20;99.90
34698;DHT22;61391;50.922;6.928;2022-12-08T00:44:44;6.30;99.90
34698;DHT22;61391;50.922;6.928;2022-12-08T00:47:10;6.30;99.90
34698;DHT22;61391;50.922;6.928;2022-12-08T00:49:36;6.20;99.90
34698;DHT22;61391;50.922;6.928;2022-12-08T00:52:02;6.00;99.90
34698;DHT22;61391;50.922;6.928;2022-12-08T00:54:27;6.10;99.90
34698;DHT22;61391;50.922;6.928;2022-12-08T00:56:53;6.10;99.90
34698;DHT22;61391;50.922;6.928;2022-12-08T00:59:19;6.20;99.90
34698;DHT22;61391;50.922;6.928;2022-12-08T01:05:07;6.20;99.90
34698;DHT22;61391;50.922;6.928;2022-12-08T01:07:32;6.30;99.90
34698;DHT22;61391;50.922;6.928;2022-12-08T01:09:58;6.20;99.90
34698;DHT22;61391;50.922;6.928;2022-12-08T01:12:23;6.20;99.90
34698;DHT22;61391;50.922;6.928;2022-12-08T01:14:49;6.20;99.90
34698;DHT22;61391;50.922;6.928;2022-12-08T01:17:15;6.30;99.90
34698;DHT22;61391;50.922;6.928;2022-12-08T01:19:40;6.20;99.90
34698;DHT22;61391;50.922;6.928;2022-12-08T01:22:06;6.20;99.90
34698;DHT22;61391;50.922;6.928;2022-12-08T01:24:31;6.30;99.90
34698;DHT22;61391;50.922;6.928;2022-12-08T01:26:57;6.20;99.90
34698;DHT22;61391;50.922;6.928;2022-12-08T01:29:22;6.10;99.90
34698;DHT22;61391;50.922;6.928;2022-12-08T01:31:48;6.00;99.90
34698;DHT22;61391;50.922;6.928;2022-12-08T01:34:14;6.10;99.90
34698;DHT22;61391;50.922;6.928;2022-12-08T01:36:39;6.00;99.90
34698;DHT22;61391;50.922;6.928;2022-12-08T01:39:10;6.00;99.90
34698;DHT22;61391;50.922;6.928;2022-12-08T01:45:02;6.10;99.90
34698;DHT22;61391;50.922;6.928;2022-12-08T01:47:35;6.00;99.90
34698;DHT22;61391;50.922;6.928;2022-12-08T01:53:28;6.00;99.90
34698;DHT22;61391;50.922;6.928;2022-12-08T01:56:13;5.90;99.90
34698;DHT22;61391;50.922;6.928;2022-12-08T01:58:47;5.90;99.90
34698;DHT22;61391;50.922;6.928;2022-12-08T02:01:13;6.00;99.90
34698;DHT22;61391;50.922;6.928;2022-12-08T02:07:01;6.20;99.90
34698;DHT22;61391;50.922;6.928;2022-12-08T02:09:27;6.20;99.90
34698;DHT22;61391;50.922;6.928;2022-12-08T02:11:54;6.20;99.90
34698;DHT22;61391;50.922;6.928;2022-12-08T02:14:21;6.10;99.90
34698;DHT22;61391;50.922;6.928;2022-12-08T02:20:19;6.10;99.90
34698;DHT22;61391;50.922;6.928;2022-12-08T02:33:55;6.30;99.90
34698;DHT22;61391;50.922;6.928;2022-12-08T02:36:48;6.30;99.90
34698;DHT22;61391;50.922;6.928;2022-12-08T02:39:43;6.30;99.90
34698;DHT22;61391;50.922;6.928;2022-12-08T02:42:26;6.20;99.90
34698;DHT22;61391;50.922;6.928;2022-12-08T02:45:23;6.20;99.90
34698;DHT22;61391;50.922;6.928;2022-12-08T02:47:47;6.30;99.90
34698;DHT22;61391;50.922;6.928;2022-12-08T02:50:13;6.30;99.90
34698;DHT22;61391;50.922;6.928;2022-12-08T02:52:44;6.30;99.90
34698;DHT22;61391;50.922;6.928;2022-12-08T02:55:16;6.30;99.90
34698;DHT22;61391;50.922;6.928;2022-12-08T03:01:41;6.60;99.90
34698;DHT22;61391;50.922;6.928;2022-12-08T03:04:36;6.60;99.90
34698;DHT22;61391;50.922;6.928;2022-12-08T03:07:07;6.60;99.90
34698;DHT22;61391;50.922;6.928;2022-12-08T03:09:45;6.60;99.90
34698;DHT22;61391;50.922;6.928;2022-12-08T03:12:20;6.60;99.90
34698;DHT22;61391;50.922;6.928;2022-12-08T03:14:52;6.40;99.90
34698;DHT22;61391;50.922;6.928;2022-12-08T03:17:20;6.40;99.90
34698;DHT22;61391;50.922;6.928;2022-12-08T03:19:47;6.40;99.90
34698;DHT22;61391;50.922;6.928;2022-12-08T03:22:16;6.10;99.90
34698;DHT22;61391;50.922;6.928;2022-12-08T03:24:45;6.10;99.90
34698;DHT22;61391;50.922;6.928;2022-12-08T03:29:36;6.20;99.90
34698;DHT22;61391;50.922;6.928;2022-12-08T03:35:32;6.30;99.90
34698;DHT22;61391;50.922;6.928;2022-12-08T03:38:05;6.40;99.90
34698;DHT22;61391;50.922;6.928;2022-12-08T03:40:32;6.50;99.90
34698;DHT22;61391;50.922;6.928;2022-12-08T03:42:57;6.40;99.90
34698;DHT22;61391;50.922;6.928;2022-12-08T03:45:23;6.40;99.90
34698;DHT22;61391;50.922;6.928;2022-12-08T03:47:49;6.40;99.90
34698;DHT22;61391;50.922;6.928;2022-12-08T03:50:14;6.30;99.90
34698;DHT22;61391;50.922;6.928;2022-12-08T03:52:40;6.30;99.90
34698;DHT22;61391;50.922;6.928;2022-12-08T03:55:06;6.30;99.90
34698;DHT22;61391;50.922;6.928;2022-12-08T03:57:32;6.40;99.90
34698;DHT22;61391;50.922;6.928;2022-12-08T03:59:57;6.40;99.90
34698;DHT22;61391;50.922;6.928;2022-12-08T04:02:23;6.30;99.90
34698;DHT22;61391;50.922;6.928;2022-12-08T04:08:10;6.30;99.90
34698;DHT22;61391;50.922;6.928;2022-12-08T04:10:36;6.30;99.90
34698;DHT22;61391;50.922;6.928;2022-12-08T04:13:02;6.30;99.90
34698;DHT22;61391;50.922;6.928;2022-12-08T04:15:27;6.40;99.90
34698;DHT22;61391;50.922;6.928;2022-12-08T04:17:53;6.40;99.90
34698;DHT22;61391;50.922;6.928;2022-12-08T04:20:18;6.30;99.90
34698;DHT22;61391;50.922;6.928;2022-12-08T04:22:44;6.30;99.90
34698;DHT22;61391;50.922;6.928;2022-12-08T04:25:09;6.30;99.90
34698;DHT22;61391;50.922;6.928;2022-12-08T04:30:57;6.20;99.90
34698;DHT22;61391;50.922;6.928;2022-12-08T04:33:23;6.30;99.90
34698;DHT22;61391;50.922;6.928;2022-12-08T04:35:48;6.40;99.90
34698;DHT22;61391;50.922;6.928;2022-12-08T04:38:14;6.40;99.90
34698;DHT22;61391;50.922;6.928;2022-12-08T04:40:40;6.30;99.90
34698;DHT22;61391;50.922;6.928;2022-12-08T04:43:05;6.20;99.90
34698;DHT22;61391;50.922;6.928;2022-12-08T04:45:32;6.10;99.90
34698;DHT22;61391;50.922;6.928;2022-12-08T04:47:58;6.00;99.90
34698;DHT22;61391;50.922;6.928;2022-12-08T04:50:24;6.00;99.90
34698;DHT22;61391;50.922;6.928;2022-12-08T04:52:49;6.00;99.90
34698;DHT22;61391;50.922;6.928;2022-12-08T04:55:15;5.90;99.90
34698;DHT22;61391;50.922;6.928;2022-12-08T04:57:41;5.90;99.90
34698;DHT22;61391;50.922;6.928;2022-12-08T05:00:07;6.00;99.90
34698;DHT22;61391;50.922;6.928;2022-12-08T05:02:32;6.10;99.90
34698;DHT22;61391;50.922;6.928;2022-12-08T05:04:58;6.10;99.90
34698;DHT22;61391;50.922;6.928;2022-12-08T05:07:23;6.00;99.90
34698;DHT22;61391;50.922;6.928;2022-12-08T05:09:49;5.90;99.90
34698;DHT22;61391;50.922;6.928;2022-12-08T05:15:37;6.00;99.90
34698;DHT22;61391;50.922;6.928;2022-12-08T05:18:04;6.10;99.90
34698;DHT22;61391;50.922;6.928;2022-12-08T05:20:30;6.20;99.90
34698;DHT22;61391;50.922;6.928;2022-12-08T05:22:56;6.30;99.90
34698;DHT22;61391;50.922;6.928;2022-12-08T05:25:21;6.30;99.90
34698;DHT22;61391;50.922;6.928;2022-12-08T05:27:47;6.20;99.90
34698;DHT22;61391;50.922;6.928;2022-12-08T05:30:12;6.20;99.90
34698;DHT22;61391;50.922;6.928;2022-12-08T05:32:38;6.20;99.90
34698;DHT22;61391;50.922;6.928;2022-12-08T05:35:04;6.20;99.90
34698;DHT22;61391;50.922;6.928;2022-12-08T05:37:30;6.00;99.90
34698;DHT22;61391;50.922;6.928;2022-12-08T05:43:17;6.10;99.90
34698;DHT22;61391;50.922;6.928;2022-12-08T05:48:31;5.90;99.90
34698;DHT22;61391;50.922;6.928;2022-12-08T05:50:57;5.90;99.90
34698;DHT22;61391;50.922;6.928;2022-12-08T05:53:22;6.00;99.90
34698;DHT22;61391;50.922;6.928;2022-12-08T05:55:48;6.00;99.90
34698;DHT22;61391;50.922;6.928;2022-12-08T05:58:16;6.10;99.90
34698;DHT22;61391;50.922;6.928;2022-12-08T06:00:42;6.10;99.90
34698;DHT22;61391;50.922;6.928;2022-12-08T06:03:10;6.10;99.90
34698;DHT22;61391;50.922;6.928;2022-12-08T06:08:58;6.10;99.90
34698;DHT22;61391;50.922;6.928;2022-12-08T06:11:27;6.20;99.90
34698;DHT22;61391;50.922;6.928;2022-12-08T06:13:53;6.20;99.90
34698;DHT22;61391;50.922;6.928;2022-12-08T06:16:21;6.10;99.90
34698;DHT22;61391;50.922;6.928;2022-12-08T06:18:47;6.10;99.90
34698;DHT22;61391;50.922;6.928;2022-12-08T06:24:34;6.00;99.90
34698;DHT22;61391;50.922;6.928;2022-12-08T06:27:00;6.10;99.90
34698;DHT22;61391;50.922;6.928;2022-12-08T06:29:28;6.10;99.90
34698;DHT22;61391;50.922;6.928;2022-12-08T06:31:53;6.00;99.90
34698;DHT22;61391;50.922;6.928;2022-12-08T06:37:41;6.00;99.90
34698;DHT22;61391;50.922;6.928;2022-12-08T06:43:28;6.10;99.90
34698;DHT22;61391;50.922;6.928;2022-12-08T06:45:53;6.10;99.90
34698;DHT22;61391;50.922;6.928;2022-12-08T06:48:19;6.10;99.90
34698;DHT22;61391;50.922;6.928;2022-12-08T06:50:45;6.10;99.90
34698;DHT22;61391;50.922;6.928;2022-12-08T06:53:12;6.10;99.90
34698;DHT22;61391;50.922;6.928;2022-12-08T06:58:59;6.10;99.90
34698;DHT22;61391;50.922;6.928;2022-12-08T07:04:43;6.10;99.90
34698;DHT22;61391;50.922;6.928;2022-12-08T07:07:08;6.10;99.90
34698;DHT22;61391;50.922;6.928;2022-12-08T07:09:34;6.10;99.90
34698;DHT22;61391;50.922;6.928;2022-12-08T07:12:02;6.00;99.90
34698;DHT22;61391;50.922;6.928;2022-12-08T07:14:27;5.90;99.90
34698;DHT22;61391;50.922;6.928;2022-12-08T07:16:53;5.90;99.90
34698;DHT22;61391;50.922;6.928;2022-12-08T07:19:18;6.00;99.90
34698;DHT22;61391;50.922;6.928;2022-12-08T07:21:44;5.90;99.90
34698;DHT22;61391;50.922;6.928;2022-12-08T07:24:10;6.00;99.90
34698;DHT22;61391;50.922;6.928;2022-12-08T07:29:57;6.00;99.90
34698;DHT22;61391;50.922;6.928;2022-12-08T07:32:23;5.90;99.90
34698;DHT22;61391;50.922;6.928;2022-12-08T07:34:48;6.00;99.90
34698;DHT22;61391;50.922;6.928;2022-12-08T07:37:14;6.00;99.90
34698;DHT22;61391;50.922;6.928;2022-12-08T07:39:39;6.00;99.90
34698;DHT22;61391;50.922;6.928;2022-12-08T07:42:05;6.10;99.90
34698;DHT22;61391;50.922;6.928;2022-12-08T07:44:30;6.10;99.90
34698;DHT22;61391;50.922;6.928;2022-12-08T07:50:18;6.10;99.90
34698;DHT22;61391;50.922;6.928;2022-12-08T07:52:44;6.10;99.90
34698;DHT22;61391;50.922;6.928;2022-12-08T07:55:09;6.00;99.90
34698;DHT22;61391;50.922;6.928;2022-12-08T07:57:35;5.90;99.90
34698;DHT22;61391;50.922;6.928;2022-12-08T08:00:01;5.90;99.90
34698;DHT22;61391;50.922;6.928;2022-12-08T08:02:27;5.80;99.90
34698;DHT22;61391;50.922;6.928;2022-12-08T08:04:53;5.90;99.90
34698;DHT22;61391;50.922;6.928;2022-12-08T08:07:19;5.80;99.90
34698;DHT22;61391;50.922;6.928;2022-12-08T08:09:44;5.80;99.90
34698;DHT22;61391;50.922;6.928;2022-12-08T08:12:32;5.70;99.90
34698;DHT22;61391;50.922;6.928;2022-12-08T08:14:58;5.50;99.90
34698;DHT22;61391;50.922;6.928;2022-12-08T08:17:24;5.50;99.90
34698;DHT22;61391;50.922;6.928;2022-12-08T08:19:49;5.50;99.90
34698;DHT22;61391;50.922;6.928;2022-12-08T08:22:15;5.50;99.90
34698;DHT22;61391;50.922;6.928;2022-12-08T08:24:40;5.60;99.90
34698;DHT22;61391;50.922;6.928;2022-12-08T08:27:06;5.70;99.90
34698;DHT22;61391;50.922;6.928;2022-12-08T08:29:31;5.80;99.90
34698;DHT22;61391;50.922;6.928;2022-12-08T08:31:57;5.80;99.90
34698;DHT22;61391;50.922;6.928;2022-12-08T08:34:26;5.70;99.90
34698;DHT22;61391;50.922;6.928;2022-12-08T08:36:51;6.00;99.90
34698;DHT22;61391;50.922;6.928;2022-12-08T08:39:29;5.80;99.90
34698;DHT22;61391;50.922;6.928;2022-12-08T08:41:56;5.80;99.90
34698;DHT22;61391;50.922;6.928;2022-12-08T08:44:22;5.70;99.90
34698;DHT22;61391;50.922;6.928;2022-12-08T08:46:47;6.00;99.90
34698;DHT22;61391;50.922;6.928;2022-12-08T08:49:13;5.90;99.90
34698;DHT22;61391;50.922;6.928;2022-12-08T08:51:39;5.70;99.90
34698;DHT22;61391;50.922;6.928;2022-12-08T08:54:07;5.70;99.90
34698;DHT22;61391;50.922;6.928;2022-12-08T08:56:33;5.70;99.90
34698;DHT22;61391;50.922;6.928;2022-12-08T08:58:58;5.70;99.90
34698;DHT22;61391;50.922;6.928;2022-12-08T09:01:26;5.90;99.90
34698;DHT22;61391;50.922;6.928;2022-12-08T09:03:53;5.80;99.90
34698;DHT22;61391;50.922;6.928;2022-12-08T09:06:18;5.90;99.90
34698;DHT22;61391;50.922;6.928;2022-12-08T09:08:46;6.20;99.90
34698;DHT22;61391;50.922;6.928;2022-12-08T09:11:12;5.90;99.90
34698;DHT22;61391;50.922;6.928;2022-12-08T09:13:38;5.90;99.90
34698;DHT22;61391;50.922;6.928;2022-12-08T09:16:05;5.90;99.90
34698;DHT22;61391;50.922;6.928;2022-12-08T09:18:31;5.90;99.90
34698;DHT22;61391;50.922;6.928;2022-12-08T09:21:04;5.90;99.90
34698;DHT22;61391;50.922;6.928;2022-12-08T09:23:29;6.10;99.90
34698;DHT22;61391;50.922;6.928;2022-12-08T09:25:55;6.00;99.90
34698;DHT22;61391;50.922;6.928;2022-12-08T09:28:21;5.90;99.90
34698;DHT22;61391;50.922;6.928;2022-12-08T09:30:46;5.90;99.90
34698;DHT22;61391;50.922;6.928;2022-12-08T09:33:12;5.90;99.90
34698;DHT22;61391;50.922;6.928;2022-12-08T09:35:42;5.80;99.90
34698;DHT22;61391;50.922;6.928;2022-12-08T09:38:07;6.20;99.90
34698;DHT22;61391;50.922;6.928;2022-12-08T09:40:38;5.90;99.90
34698;DHT22;61391;50.922;6.928;2022-12-08T09:45:51;5.80;99.90
34698;DHT22;61391;50.922;6.928;2022-12-08T09:48:26;5.70;99.90
34698;DHT22;61391;50.922;6.928;2022-12-08T09:50:55;5.70;99.90
34698;DHT22;61391;50.922;6.928;2022-12-08T09:53:44;5.70;99.90
34698;DHT22;61391;50.922;6.928;2022-12-08T09:56:30;5.90;99.90
34698;DHT22;61391;50.922;6.928;2022-12-08T10:01:30;5.90;99.90
34698;DHT22;61391;50.922;6.928;2022-12-08T10:03:57;5.90;99.90
34698;DHT22;61391;50.922;6.928;2022-12-08T10:06:44;6.10;99.90
34698;DHT22;61391;50.922;6.928;2022-12-08T10:09:33;5.90;99.90
34698;DHT22;61391;50.922;6.928;2022-12-08T10:12:12;6.00;99.90
34698;DHT22;61391;50.922;6.928;2022-12-08T10:17:28;6.10;99.90
34698;DHT22;61391;50.922;6.928;2022-12-08T10:20:05;6.20;99.90
34698;DHT22;61391;50.922;6.928;2022-12-08T10:22:35;6.00;99.90
34698;DHT22;61391;50.922;6.928;2022-12-08T10:27:38;5.90;99.90
34698;DHT22;61391;50.922;6.928;2022-12-08T10:30:15;5.90;99.90
34698;DHT22;61391;50.922;6.928;2022-12-08T10:32:44;6.00;99.90
34698;DHT22;61391;50.922;6.928;2022-12-08T10:35:12;6.10;99.90
34698;DHT22;61391;50.922;6.928;2022-12-08T10:37:39;6.20;99.90
34698;DHT22;61391;50.922;6.928;2022-12-08T10:40:28;6.20;99.90
34698;DHT22;61391;50.922;6.928;2022-12-08T10:42:58;6.10;99.90
34698;DHT22;61391;50.922;6.928;2022-12-08T10:45:31;6.10;99.90
34698;DHT22;61391;50.922;6.928;2022-12-08T10:48:03;6.10;99.90
34698;DHT22;61391;50.922;6.928;2022-12-08T10:50:32;6.10;99.90
34698;DHT22;61391;50.922;6.928;2022-12-08T10:55:48;6.00;99.90
34698;DHT22;61391;50.922;6.928;2022-12-08T10:58:35;6.00;99.90
34698;DHT22;61391;50.922;6.928;2022-12-08T11:01:24;6.10;99.90
34698;DHT22;61391;50.922;6.928;2022-12-08T11:04:00;6.10;99.90
34698;DHT22;61391;50.922;6.928;2022-12-08T11:06:35;6.20;99.90
34698;DHT22;61391;50.922;6.928;2022-12-08T11:09:35;6.20;99.90
34698;DHT22;61391;50.922;6.928;2022-12-08T11:12:12;6.30;99.90
34698;DHT22;61391;50.922;6.928;2022-12-08T11:17:11;6.40;99.90
34698;DHT22;61391;50.922;6.928;2022-12-08T11:19:39;6.10;99.90
34698;DHT22;61391;50.922;6.928;2022-12-08T11:25:08;6.10;99.90
34698;DHT22;61391;50.922;6.928;2022-12-08T11:27:40;6.10;99.90
34698;DHT22;61391;50.922;6.928;2022-12-08T11:32:48;6.00;99.90
34698;DHT22;61391;50.922;6.928;2022-12-08T11:35:37;6.00;99.90
34698;DHT22;61391;50.922;6.928;2022-12-08T11:38:12;5.90;99.90
34698;DHT22;61391;50.922;6.928;2022-12-08T11:40:42;5.80;99.90
34698;DHT22;61391;50.922;6.928;2022-12-08T11:43:21;5.90;99.90
34698;DHT22;61391;50.922;6.928;2022-12-08T11:45:57;5.80;99.90
34698;DHT22;61391;50.922;6.928;2022-12-08T11:48:34;5.90;99.90
34698;DHT22;61391;50.922;6.928;2022-12-08T11:54:21;6.00;99.90
34698;DHT22;61391;50.922;6.928;2022-12-08T11:56:53;6.30;99.90
34698;DHT22;61391;50.922;6.928;2022-12-08T12:01:55;6.50;99.90
34698;DHT22;61391;50.922;6.928;2022-12-08T12:04:45;6.40;99.90
34698;DHT22;61391;50.922;6.928;2022-12-08T12:07:28;6.50;99.90
34698;DHT22;61391;50.922;6.928;2022-12-08T12:15:31;6.80;99.90
34698;DHT22;61391;50.922;6.928;2022-12-08T12:18:26;6.70;99.90
34698;DHT22;61391;50.922;6.928;2022-12-08T12:21:26;6.60;99.90
34698;DHT22;61391;50.922;6.928;2022-12-08T12:23:58;6.70;99.90
34698;DHT22;61391;50.922;6.928;2022-12-08T12:26:28;6.60;99.90
34698;DHT22;61391;50.922;6.928;2022-12-08T12:29:06;6.80;99.90
34698;DHT22;61391;50.922;6.928;2022-12-08T12:31:40;6.80;99.90
34698;DHT22;61391;50.922;6.928;2022-12-08T12:34:26;6.60;99.90
34698;DHT22;61391;50.922;6.928;2022-12-08T12:37:14;6.60;99.90
34698;DHT22;61391;50.922;6.928;2022-12-08T12:40:10;6.70;99.90
34698;DHT22;61391;50.922;6.928;2022-12-08T12:50:51;6.80;99.90
34698;DHT22;61391;50.922;6.928;2022-12-08T12:55:58;6.90;99.90
34698;DHT22;61391;50.922;6.928;2022-12-08T13:01:34;7.10;99.90
34698;DHT22;61391;50.922;6.928;2022-12-08T13:04:06;7.20;99.90
34698;DHT22;61391;50.922;6.928;2022-12-08T13:06:38;7.20;99.90
34698;DHT22;61391;50.922;6.928;2022-12-08T13:09:05;7.10;99.90
34698;DHT22;61391;50.922;6.928;2022-12-08T13:11:44;7.00;99.90
34698;DHT22;61391;50.922;6.928;2022-12-08T13:14:32;7.00;99.90
34698;DHT22;61391;50.922;6.928;2022-12-08T13:17:01;7.10;99.90
34698;DHT22;61391;50.922;6.928;2022-12-08T13:19:30;6.90;99.90
34698;DHT22;61391;50.922;6.928;2022-12-08T13:21:56;7.20;99.90
34698;DHT22;61391;50.922;6.928;2022-12-08T13:29:29;7.20;99.90
34698;DHT22;61391;50.922;6.928;2022-12-08T13:39:43;7.50;99.90
34698;DHT22;61391;50.922;6.928;2022-12-08T13:44:53;8.00;99.90
34698;DHT22;61391;50.922;6.928;2022-12-08T13:47:31;7.50;99.90
34698;DHT22;61391;50.922;6.928;2022-12-08T13:50:08;7.60;99.90
34698;DHT22;61391;50.922;6.928;2022-12-08T13:52:47;7.60;99.90
34698;DHT22;61391;50.922;6.928;2022-12-08T13:55:24;7.40;99.90
34698;DHT22;61391;50.922;6.928;2022-12-08T13:57:52;7.20;99.90
34698;DHT22;61391;50.922;6.928;2022-12-08T14:00:20;7.20;99.90
34698;DHT22;61391;50.922;6.928;2022-12-08T14:02:54;7.10;99.90
34698;DHT22;61391;50.922;6.928;2022-12-08T14:05:22;7.00;99.90
34698;DHT22;61391;50.922;6.928;2022-12-08T14:07:53;7.10;99.90
34698;DHT22;61391;50.922;6.928;2022-12-08T14:10:26;7.10;99.90
34698;DHT22;61391;50.922;6.928;2022-12-08T14:13:04;7.30;99.90
34698;DHT22;61391;50.922;6.928;2022-12-08T14:15:31;7.40;99.90
34698;DHT22;61391;50.922;6.928;2022-12-08T14:18:00;7.40;99.90
34698;DHT22;61391;50.922;6.928;2022-12-08T14:20:34;7.40;99.90
34698;DHT22;61391;50.922;6.928;2022-12-08T14:23:06;7.30;99.90
34698;DHT22;61391;50.922;6.928;2022-12-08T14:25:32;7.30;99.90
34698;DHT22;61391;50.922;6.928;2022-12-08T14:28:02;7.10;99.90
34698;DHT22;61391;50.922;6.928;2022-12-08T14:30:33;7.30;99.90
34698;DHT22;61391;50.922;6.928;2022-12-08T14:33:04;7.10;99.90
34698;DHT22;61391;50.922;6.928;2022-12-08T14:35:35;7.20;99.90
34698;DHT22;61391;50.922;6.928;2022-12-08T14:38:17;7.10;99.90
34698;DHT22;61391;50.922;6.928;2022-12-08T14:40:48;7.10;99.90
34698;DHT22;61391;50.922;6.928;2022-12-08T14:43:25;7.20;99.90
34698;DHT22;61391;50.922;6.928;2022-12-08T14:45:58;6.90;99.90
34698;DHT22;61391;50.922;6.928;2022-12-08T14:51:00;7.00;99.90
34698;DHT22;61391;50.922;6.928;2022-12-08T14:53:40;7.00;99.90
34698;DHT22;61391;50.922;6.928;2022-12-08T14:56:10;6.80;99.90
34698;DHT22;61391;50.922;6.928;2022-12-08T14:58:39;6.80;99.90
34698;DHT22;61391;50.922;6.928;2022-12-08T15:01:06;7.00;99.90
34698;DHT22;61391;50.922;6.928;2022-12-08T15:03:34;7.40;99.90
34698;DHT22;61391;50.922;6.928;2022-12-08T15:06:05;6.90;99.90
34698;DHT22;61391;50.922;6.928;2022-12-08T15:08:32;6.90;99.90
34698;DHT22;61391;50.922;6.928;2022-12-08T15:13:48;6.80;99.90
34698;DHT22;61391;50.922;6.928;2022-12-08T15:19:29;6.80;99.90
34698;DHT22;61391;50.922;6.928;2022-12-08T15:24:52;6.70;99.90
34698;DHT22;61391;50.922;6.928;2022-12-08T15:27:22;6.90;99.90
34698;DHT22;61391;50.922;6.928;2022-12-08T15:29:49;6.80;99.90
34698;DHT22;61391;50.922;6.928;2022-12-08T15:32:20;6.80;99.90
34698;DHT22;61391;50.922;6.928;2022-12-08T15:34:46;6.80;99.90
34698;DHT22;61391;50.922;6.928;2022-12-08T15:37:30;6.70;99.90
34698;DHT22;61391;50.922;6.928;2022-12-08T15:39:56;6.90;99.90
34698;DHT22;61391;50.922;6.928;2022-12-08T15:42:22;6.90;99.90
34698;DHT22;61391;50.922;6.928;2022-12-08T15:44:47;6.80;99.90
34698;DHT22;61391;50.922;6.928;2022-12-08T15:47:21;6.90;99.90
34698;DHT22;61391;50.922;6.928;2022-12-08T15:49:49;6.90;99.90
34698;DHT22;61391;50.922;6.928;2022-12-08T15:52:21;6.80;99.90
34698;DHT22;61391;50.922;6.928;2022-12-08T15:54:47;6.70;99.90
34698;DHT22;61391;50.922;6.928;2022-12-08T15:57:21;6.70;99.90
34698;DHT22;61391;50.922;6.928;2022-12-08T15:59:48;6.80;99.90
34698;DHT22;61391;50.922;6.928;2022-12-08T16:02:14;6.70;99.90
34698;DHT22;61391;50.922;6.928;2022-12-08T16:04:40;6.70;99.90
34698;DHT22;61391;50.922;6.928;2022-12-08T16:07:18;6.70;99.90
34698;DHT22;61391;50.922;6.928;2022-12-08T16:13:19;6.30;99.90
34698;DHT22;61391;50.922;6.928;2022-12-08T16:16:05;6.00;99.90
34698;DHT22;61391;50.922;6.928;2022-12-08T16:18:35;5.90;99.90
34698;DHT22;61391;50.922;6.928;2022-12-08T16:21:03;6.10;99.90
34698;DHT22;61391;50.922;6.928;2022-12-08T16:26:50;6.20;99.90
34698;DHT22;61391;50.922;6.928;2022-12-08T16:29:19;6.40;99.90
34698;DHT22;61391;50.922;6.928;2022-12-08T16:35:09;6.10;99.90
34698;DHT22;61391;50.922;6.928;2022-12-08T16:40:57;6.10;99.90
34698;DHT22;61391;50.922;6.928;2022-12-08T16:47:07;6.10;99.90
34698;DHT22;61391;50.922;6.928;2022-12-08T16:49:35;6.20;99.90
34698;DHT22;61391;50.922;6.928;2022-12-08T16:52:01;6.20;99.90
34698;DHT22;61391;50.922;6.928;2022-12-08T16:54:28;6.20;99.90
34698;DHT22;61391;50.922;6.928;2022-12-08T16:56:53;6.20;99.90
34698;DHT22;61391;50.922;6.928;2022-12-08T16:59:19;6.00;99.90
34698;DHT22;61391;50.922;6.928;2022-12-08T17:01:44;5.90;99.90
34698;DHT22;61391;50.922;6.928;2022-12-08T17:07:33;5.80;99.90
34698;DHT22;61391;50.922;6.928;2022-12-08T17:10:02;5.60;99.90
34698;DHT22;61391;50.922;6.928;2022-12-08T17:15:50;5.50;99.90
34698;DHT22;61391;50.922;6.928;2022-12-08T17:18:16;5.40;99.90
34698;DHT22;61391;50.922;6.928;2022-12-08T17:20:41;5.50;99.90
34698;DHT22;61391;50.922;6.928;2022-12-08T17:23:07;5.50;99.90
34698;DHT22;61391;50.922;6.928;2022-12-08T17:25:32;5.50;99.90
34698;DHT22;61391;50.922;6.928;2022-12-08T17:27:58;5.40;99.90
34698;DHT22;61391;50.922;6.928;2022-12-08T17:30:23;5.30;99.90
34698;DHT22;61391;50.922;6.928;2022-12-08T17:32:49;5.40;99.90
34698;DHT22;61391;50.922;6.928;2022-12-08T17:35:17;5.40;99.90
34698;DHT22;61391;50.922;6.928;2022-12-08T17:37:42;5.60;99.90
34698;DHT22;61391;50.922;6.928;2022-12-08T17:40:08;5.70;99.90
34698;DHT22;61391;50.922;6.928;2022-12-08T17:42:34;5.60;99.90
34698;DHT22;61391;50.922;6.928;2022-12-08T17:48:21;5.40;99.90
34698;DHT22;61391;50.922;6.928;2022-12-08T17:50:47;5.50;99.90
34698;DHT22;61391;50.922;6.928;2022-12-08T17:53:13;5.40;99.90
34698;DHT22;61391;50.922;6.928;2022-12-08T17:55:38;5.40;99.90
34698;DHT22;61391;50.922;6.928;2022-12-08T17:58:06;5.40;99.90
34698;DHT22;61391;50.922;6.928;2022-12-08T18:00:33;5.30;99.90
34698;DHT22;61391;50.922;6.928;2022-12-08T18:02:59;5.30;99.90
34698;DHT22;61391;50.922;6.928;2022-12-08T18:05:25;5.40;99.90
34698;DHT22;61391;50.922;6.928;2022-12-08T18:07:51;5.30;99.90
34698;DHT22;61391;50.922;6.928;2022-12-08T18:10:17;5.20;99.90
34698;DHT22;61391;50.922;6.928;2022-12-08T18:12:43;5.20;99.90
34698;DHT22;61391;50.922;6.928;2022-12-08T18:15:11;5.00;99.90
34698;DHT22;61391;50.922;6.928;2022-12-08T18:17:36;5.10;99.90
34698;DHT22;61391;50.922;6.928;2022-12-08T18:20:02;5.20;99.90
34698;DHT22;61391;50.922;6.928;2022-12-08T18:22:28;5.10;99.90
34698;DHT22;61391;50.922;6.928;2022-12-08T18:24:54;5.00;99.90
34698;DHT22;61391;50.922;6.928;2022-12-08T18:27:19;5.10;99.90
34698;DHT22;61391;50.922;6.928;2022-12-08T18:29:45;5.00;99.90
34698;DHT22;61391;50.922;6.928;2022-12-08T18:32:10;5.00;99.90
34698;DHT22;61391;50.922;6.928;2022-12-08T18:34:36;4.90;99.90
34698;DHT22;61391;50.922;6.928;2022-12-08T18:37:01;5.10;99.90
34698;DHT22;61391;50.922;6.928;2022-12-08T18:39:29;5.10;99.90
34698;DHT22;61391;50.922;6.928;2022-12-08T18:45:17;5.00;99.90
34698;DHT22;61391;50.922;6.928;2022-12-08T18:47:47;5.00;99.90
34698;DHT22;61391;50.922;6.928;2022-12-08T18:50:13;4.90;99.90
34698;DHT22;61391;50.922;6.928;2022-12-08T18:52:40;5.00;99.90
34698;DHT22;61391;50.922;6.928;2022-12-08T18:55:06;5.10;99.90
34698;DHT22;61391;50.922;6.928;2022-12-08T18:57:32;5.10;99.90
34698;DHT22;61391;50.922;6.928;2022-12-08T18:59:57;5.00;99.90
34698;DHT22;61391;50.922;6.928;2022-12-08T19:02:23;5.00;99.90
34698;DHT22;61391;50.922;6.928;2022-12-08T19:04:48;5.10;99.90
34698;DHT22;61391;50.922;6.928;2022-12-08T19:07:14;5.10;99.90
34698;DHT22;61391;50.922;6.928;2022-12-08T19:09:41;5.10;99.90
34698;DHT22;61391;50.922;6.928;2022-12-08T19:12:08;5.10;99.90